Time;durP1;ratioP1;P1;durP2;ratioP2;P2;SDS_P1;SDS_P2;PMS_P1;PMS_P2;Temp;Humidity;BMP_temperature;BMP_pressure;BME280_temperature;BME280_humidity;BME280_pressure;Samples;Min_cycle;Max_cycle;Signal;HPM_P1;HPM_P2
2024/04/02 00:01:55;;;;;;;0.68;0.40;;;9.10;99.90;;;;;;4973240;28;20067;-67
2024/04/02 00:04:21;;;;;;;0.60;0.45;;;9.10;99.90;;;;;;4986955;28;20035;-67
2024/04/02 00:06:47;;;;;;;0.82;0.22;;;9.10;99.90;;;;;;4986883;28;20149;-67
2024/04/02 00:09:13;;;;;;;0.50;0.40;;;9.00;99.90;;;;;;4992455;28;20109;-67
2024/04/02 00:11:39;;;;;;;1.35;0.50;;;9.00;99.90;;;;;;4989264;28;20475;-67
2024/04/02 00:14:04;;;;;;;1.27;0.40;;;8.90;99.90;;;;;;4991211;28;20206;-67
2024/04/02 00:16:30;;;;;;;1.27;0.50;;;9.00;99.90;;;;;;4988871;28;20030;-67
2024/04/02 00:18:56;;;;;;;0.50;0.32;;;9.00;99.90;;;;;;4991166;28;20077;-67
2024/04/02 00:21:22;;;;;;;0.93;0.45;;;9.00;99.90;;;;;;4987011;28;20106;-67
2024/04/02 00:23:47;;;;;;;1.48;0.57;;;9.00;99.90;;;;;;4989531;28;20506;-67
2024/04/02 00:26:13;;;;;;;0.52;0.30;;;9.00;99.90;;;;;;4989635;28;20098;-67
2024/04/02 00:28:39;;;;;;;0.30;0.22;;;9.00;99.90;;;;;;4987356;28;20035;-67
2024/04/02 00:31:06;;;;;;;3.92;0.47;;;9.10;99.90;;;;;;4989174;28;20015;-67
2024/04/02 00:33:32;;;;;;;0.22;0.20;;;9.10;99.90;;;;;;4990936;28;20026;-67
2024/04/02 00:36:06;;;;;;;0.10;0.10;;;9.20;99.90;;;;;;4991928;28;20138;-67
2024/04/02 00:38:33;;;;;;;0.70;0.40;;;9.20;99.90;;;;;;4993332;28;20130;-68
2024/04/02 00:40:59;;;;;;;0.60;0.20;;;9.10;99.90;;;;;;4992247;28;20104;-67
2024/04/02 00:43:26;;;;;;;0.40;0.40;;;9.20;99.90;;;;;;4993221;28;20484;-67
2024/04/02 00:45:52;;;;;;;4.13;0.20;;;9.10;99.90;;;;;;4993274;28;20126;-67
2024/04/02 00:48:19;;;;;;;6.80;0.65;;;9.10;99.90;;;;;;4988808;28;20028;-67
2024/04/02 00:50:47;;;;;;;2.03;0.30;;;9.10;99.90;;;;;;4991154;28;20497;-68
2024/04/02 00:53:14;;;;;;;0.43;0.25;;;9.10;99.90;;;;;;4989064;28;20379;-68
2024/04/02 00:55:43;;;;;;;0.10;0.10;;;9.10;99.90;;;;;;4989779;28;20053;-68
2024/04/02 00:58:09;;;;;;;0.75;0.40;;;9.10;99.90;;;;;;4988961;28;20076;-68
2024/04/02 01:00:36;;;;;;;0.73;0.43;;;9.10;99.90;;;;;;4989642;28;20030;-68
2024/04/02 01:03:05;;;;;;;0.93;0.32;;;9.00;99.90;;;;;;4988608;28;20035;-68
2024/04/02 01:05:36;;;;;;;0.75;0.30;;;9.00;99.90;;;;;;4982484;28;20543;-68
2024/04/02 01:08:03;;;;;;;;;;;8.90;99.90;;;;;;4985901;28;20049;-67
2024/04/02 01:10:32;;;;;;;0.70;0.28;;;8.90;99.90;;;;;;4993615;28;19913;-68
2024/04/02 01:13:01;;;;;;;0.50;0.32;;;8.90;99.90;;;;;;4991616;28;20026;-68
2024/04/02 01:15:27;;;;;;;0.32;0.32;;;8.90;99.90;;;;;;4993232;28;20058;-68
2024/04/02 01:17:53;;;;;;;0.25;0.25;;;8.80;99.90;;;;;;4987704;28;20448;-68
2024/04/02 01:20:19;;;;;;;0.35;0.35;;;8.80;99.90;;;;;;4993686;28;20033;-68
2024/04/02 01:22:44;;;;;;;2.63;0.20;;;8.80;99.90;;;;;;4989649;28;20039;-68
2024/04/02 01:25:10;;;;;;;0.75;0.20;;;8.80;99.90;;;;;;4993647;28;20034;-67
2024/04/02 01:27:36;;;;;;;0.95;0.25;;;8.70;99.90;;;;;;4988210;28;20034;-67
2024/04/02 01:30:03;;;;;;;0.38;0.25;;;8.70;99.90;;;;;;4988880;28;20034;-67
2024/04/02 01:32:29;;;;;;;0.38;0.28;;;8.60;99.90;;;;;;4983386;28;20053;-67
2024/04/02 01:34:56;;;;;;;0.40;0.20;;;8.60;99.90;;;;;;4993242;28;20043;-67
2024/04/02 01:37:22;;;;;;;3.72;0.60;;;8.50;99.90;;;;;;4986758;28;20098;-67
2024/04/02 01:39:48;;;;;;;1.17;0.47;;;8.60;99.90;;;;;;4991628;28;20379;-67
2024/04/02 01:42:14;;;;;;;0.10;0.10;;;8.50;99.90;;;;;;4994454;28;20027;-67
2024/04/02 01:44:39;;;;;;;0.20;0.17;;;8.50;99.90;;;;;;4988199;28;20111;-67
2024/04/02 01:47:05;;;;;;;0.20;0.20;;;8.50;99.90;;;;;;4986772;28;20682;-67
2024/04/02 01:49:31;;;;;;;3.58;0.70;;;8.50;99.90;;;;;;4993238;28;20104;-67
2024/04/02 01:51:56;;;;;;;1.10;0.55;;;8.50;99.90;;;;;;4987041;28;20564;-67
2024/04/02 01:54:22;;;;;;;0.85;0.20;;;8.40;99.90;;;;;;4992737;28;20101;-67
2024/04/02 01:56:48;;;;;;;1.65;0.60;;;8.50;99.90;;;;;;4986019;28;20431;-67
2024/04/02 01:59:13;;;;;;;0.40;0.28;;;8.50;99.90;;;;;;4993037;28;20023;-67
2024/04/02 02:01:39;;;;;;;0.80;0.22;;;8.50;99.90;;;;;;4986685;28;20023;-67
2024/04/02 02:04:05;;;;;;;6.50;0.50;;;8.50;99.90;;;;;;4992877;28;20089;-67
2024/04/02 02:06:31;;;;;;;0.90;0.43;;;8.50;99.90;;;;;;4986844;28;20046;-68
2024/04/02 02:08:57;;;;;;;0.82;0.40;;;8.50;99.90;;;;;;4992043;28;20034;-68
2024/04/02 02:11:22;;;;;;;0.43;0.30;;;8.50;99.90;;;;;;4990852;28;20023;-67
2024/04/02 02:13:48;;;;;;;0.30;0.20;;;8.50;99.90;;;;;;4989529;28;20037;-68
2024/04/02 02:16:14;;;;;;;1.20;0.52;;;8.40;99.90;;;;;;4987973;28;20093;-66
2024/04/02 02:18:39;;;;;;;0.15;0.05;;;8.40;99.90;;;;;;4989695;28;20487;-66
2024/04/02 02:21:05;;;;;;;1.58;0.22;;;8.40;99.90;;;;;;4990498;28;20042;-66
2024/04/02 02:23:31;;;;;;;0.40;0.30;;;8.40;99.90;;;;;;4988245;28;20114;-66
2024/04/02 02:25:57;;;;;;;0.22;0.20;;;8.40;99.90;;;;;;4991008;28;20026;-66
2024/04/02 02:28:22;;;;;;;0.10;0.10;;;8.40;99.90;;;;;;4999350;28;20027;-66
2024/04/02 02:30:49;;;;;;;1.75;0.40;;;8.40;99.90;;;;;;4990636;28;20028;-67
2024/04/02 02:33:15;;;;;;;0.35;0.20;;;8.40;99.90;;;;;;4987213;28;20030;-67
2024/04/02 02:35:40;;;;;;;1.00;0.17;;;8.40;99.90;;;;;;4989107;28;20487;-67
2024/04/02 02:38:06;;;;;;;0.30;0.20;;;8.50;99.90;;;;;;4986377;28;20367;-67
2024/04/02 02:40:32;;;;;;;0.68;0.20;;;8.40;99.90;;;;;;4987493;28;20034;-67
2024/04/02 02:42:58;;;;;;;2.08;0.40;;;8.50;99.90;;;;;;4973421;28;20045;-67
2024/04/02 02:45:25;;;;;;;0.20;0.17;;;8.50;99.90;;;;;;4990103;28;20022;-67
2024/04/02 02:47:51;;;;;;;1.67;0.30;;;8.50;99.90;;;;;;4982786;28;20117;-66
2024/04/02 02:50:17;;;;;;;0.20;0.17;;;8.50;99.90;;;;;;4987540;28;20066;-67
2024/04/02 02:52:44;;;;;;;0.20;0.15;;;8.60;99.90;;;;;;4988572;28;20050;-67
2024/04/02 02:55:09;;;;;;;0.28;0.28;;;8.60;99.90;;;;;;4991399;28;20030;-67
2024/04/02 02:57:35;;;;;;;0.85;0.65;;;8.70;99.90;;;;;;4986442;28;20372;-67
2024/04/02 03:00:01;;;;;;;6.13;0.47;;;8.70;99.90;;;;;;4982802;28;20831;-67
2024/04/02 03:02:27;;;;;;;0.47;0.22;;;8.70;99.90;;;;;;4985533;28;20042;-66
2024/04/02 03:04:52;;;;;;;0.55;0.30;;;8.80;99.90;;;;;;4991782;28;20030;-66
2024/04/02 03:07:18;;;;;;;1.70;0.52;;;8.80;99.90;;;;;;4985373;28;20030;-67
2024/04/02 03:09:44;;;;;;;1.08;0.20;;;8.80;99.90;;;;;;4988014;28;20046;-67
2024/04/02 03:12:10;;;;;;;0.88;0.30;;;8.90;99.90;;;;;;4985736;28;20034;-68
2024/04/02 03:14:35;;;;;;;0.10;0.10;;;8.90;99.90;;;;;;4991661;28;20109;-66
2024/04/02 03:17:01;;;;;;;0.10;0.10;;;8.90;99.90;;;;;;4989244;28;20041;-67
2024/04/02 03:19:30;;;;;;;0.52;0.40;;;9.00;99.90;;;;;;4990383;28;20579;-66
2024/04/02 03:21:56;;;;;;;0.77;0.40;;;9.00;99.90;;;;;;4985358;28;20057;-67
2024/04/02 03:24:22;;;;;;;2.58;0.30;;;9.00;99.90;;;;;;4991825;28;20034;-66
2024/04/02 03:26:47;;;;;;;0.30;0.15;;;9.00;99.90;;;;;;4989244;28;20116;-67
2024/04/02 03:29:16;;;;;;;0.38;0.20;;;9.00;99.90;;;;;;4991821;28;20037;-67
2024/04/02 03:31:42;;;;;;;5.45;0.93;;;9.00;99.90;;;;;;4985274;28;20089;-67
2024/04/02 03:34:08;;;;;;;0.57;0.55;;;9.00;99.90;;;;;;4987000;28;20031;-67
2024/04/02 03:36:34;;;;;;;0.65;0.38;;;9.00;99.90;;;;;;4986333;28;20026;-67
2024/04/02 03:38:59;;;;;;;0.73;0.30;;;9.00;99.90;;;;;;4992214;28;20410;-67
2024/04/02 03:41:25;;;;;;;0.85;0.55;;;9.00;99.90;;;;;;4993876;28;20030;-67
2024/04/02 03:43:51;;;;;;;1.10;0.20;;;9.00;99.90;;;;;;4989725;28;20121;-67
2024/04/02 03:46:17;;;;;;;0.82;0.43;;;9.00;99.90;;;;;;4987397;28;20113;-67
2024/04/02 03:48:43;;;;;;;2.88;0.70;;;9.00;99.90;;;;;;4988955;28;20026;-67
2024/04/02 03:51:08;;;;;;;0.80;0.28;;;9.00;99.90;;;;;;4989866;28;20015;-67
2024/04/02 03:53:34;;;;;;;0.35;0.20;;;8.90;99.90;;;;;;4990090;28;20034;-67
2024/04/02 03:56:02;;;;;;;1.75;0.20;;;8.90;99.90;;;;;;4989026;28;20061;-67
2024/04/02 03:58:29;;;;;;;0.80;0.17;;;8.90;99.90;;;;;;4990324;28;20569;-67
2024/04/02 04:00:56;;;;;;;0.15;0.15;;;8.90;99.90;;;;;;4988659;28;20390;-67
2024/04/02 04:03:26;;;;;;;0.30;0.30;;;8.90;99.90;;;;;;4985595;28;20042;-67
2024/04/02 04:06:02;;;;;;;3.47;0.30;;;8.90;99.90;;;;;;4987666;28;20042;-67
2024/04/02 04:08:29;;;;;;;2.65;0.98;;;8.90;99.90;;;;;;4989960;28;20483;-67
2024/04/02 04:10:55;;;;;;;0.32;0.20;;;9.00;99.90;;;;;;4994011;28;20058;-67
2024/04/02 04:13:22;;;;;;;0.20;0.20;;;9.00;99.90;;;;;;4993209;28;20026;-67
2024/04/02 04:15:58;;;;;;;3.03;0.40;;;8.90;99.90;;;;;;4994036;28;20062;-67
2024/04/02 04:18:25;;;;;;;1.13;0.80;;;8.90;99.90;;;;;;4989872;28;20054;-68
2024/04/02 04:20:59;;;;;;;0.45;0.38;;;9.00;99.90;;;;;;4994243;28;20055;-67
2024/04/02 04:23:25;;;;;;;0.45;0.40;;;9.00;99.90;;;;;;4989827;28;20034;-68
2024/04/02 04:26:01;;;;;;;0.22;0.17;;;9.00;99.90;;;;;;4993348;28;20022;-67
2024/04/02 04:28:27;;;;;;;0.43;0.10;;;8.90;99.90;;;;;;4992696;28;20019;-67
2024/04/02 04:30:59;;;;;;;0.40;0.15;;;8.90;99.90;;;;;;4991037;28;20054;-67
2024/04/02 04:33:25;;;;;;;0.38;0.30;;;8.90;99.90;;;;;;4987898;28;20062;-67
2024/04/02 04:35:53;;;;;;;3.72;0.35;;;8.90;99.90;;;;;;4993252;28;20030;-67
2024/04/02 04:38:20;;;;;;;0.30;0.20;;;8.90;99.90;;;;;;4971572;28;20475;-67
2024/04/02 04:40:46;;;;;;;0.17;0.13;;;8.90;99.90;;;;;;4993258;28;20512;-68
2024/04/02 04:43:17;;;;;;;0.15;0.10;;;8.90;99.90;;;;;;4989290;28;20037;-67
2024/04/02 04:45:58;;;;;;;1.80;0.30;;;8.90;99.90;;;;;;4991739;28;20034;-67
2024/04/02 04:48:24;;;;;;;0.70;0.57;;;8.90;99.90;;;;;;4989310;28;20290;-67
2024/04/02 04:51:01;;;;;;;0.95;0.30;;;8.90;99.90;;;;;;4993686;28;20026;-67
2024/04/02 04:53:27;;;;;;;0.10;0.10;;;9.00;99.90;;;;;;4990034;28;20033;-65
2024/04/02 04:56:01;;;;;;;0.98;0.60;;;9.00;99.90;;;;;;4992374;28;20027;-65
2024/04/02 04:58:28;;;;;;;0.10;0.10;;;9.00;99.90;;;;;;4988499;28;20041;-64
2024/04/02 05:00:54;;;;;;;1.02;0.40;;;9.10;99.90;;;;;;4993310;28;20065;-63
2024/04/02 05:03:20;;;;;;;0.43;0.30;;;9.00;99.90;;;;;;4993615;28;20034;-63
2024/04/02 05:05:46;;;;;;;0.90;0.40;;;9.00;99.90;;;;;;4980021;28;20026;-63
2024/04/02 05:08:23;;;;;;;0.25;0.20;;;9.00;99.90;;;;;;4994003;28;20041;-63
2024/04/02 05:10:50;;;;;;;0.70;0.40;;;9.10;99.90;;;;;;4991741;28;20027;-68
2024/04/02 05:13:17;;;;;;;5.65;0.65;;;9.10;99.90;;;;;;4989204;28;20034;-68
2024/04/02 05:15:43;;;;;;;1.90;0.80;;;9.00;99.90;;;;;;4983497;28;20034;-68
2024/04/02 05:18:09;;;;;;;2.13;0.52;;;9.10;99.90;;;;;;4993368;28;20022;-68
2024/04/02 05:20:35;;;;;;;0.80;0.40;;;9.00;99.90;;;;;;4986922;28;20369;-68
2024/04/02 05:23:02;;;;;;;0.10;0.10;;;9.00;99.90;;;;;;5008247;28;20121;-68
2024/04/02 05:25:28;;;;;;;2.05;0.30;;;9.00;99.90;;;;;;4986716;28;20041;-68
2024/04/02 05:27:53;;;;;;;5.80;1.23;;;9.10;99.90;;;;;;4991808;28;20026;-67
2024/04/02 05:30:20;;;;;;;0.40;0.20;;;9.10;99.90;;;;;;4993317;28;20103;-68
2024/04/02 05:32:45;;;;;;;1.33;0.25;;;9.10;99.90;;;;;;4985172;28;20055;-68
2024/04/02 05:35:12;;;;;;;0.28;0.15;;;9.10;99.90;;;;;;4994514;28;20084;-68
2024/04/02 05:37:37;;;;;;;0.20;0.20;;;9.10;99.90;;;;;;4990839;28;20034;-68
2024/04/02 05:40:05;;;;;;;1.08;0.90;;;9.10;99.90;;;;;;4993204;28;20041;-68
2024/04/02 05:42:34;;;;;;;1.90;0.40;;;9.10;99.90;;;;;;4991634;28;20030;-68
2024/04/02 05:45:00;;;;;;;0.75;0.40;;;9.10;99.90;;;;;;4993171;28;20038;-68
2024/04/02 05:47:27;;;;;;;1.63;0.40;;;9.10;99.90;;;;;;4990647;28;20400;-68
2024/04/02 05:49:53;;;;;;;4.90;0.38;;;9.10;99.90;;;;;;4992314;28;20084;-68
2024/04/02 05:52:18;;;;;;;2.47;0.40;;;9.10;99.90;;;;;;4992939;28;20105;-68
2024/04/02 05:54:45;;;;;;;0.65;0.45;;;9.10;99.90;;;;;;4984897;28;20041;-68
2024/04/02 05:57:15;;;;;;;0.30;0.20;;;9.10;99.90;;;;;;4989640;28;20034;-68
2024/04/02 05:59:42;;;;;;;2.15;0.43;;;9.10;99.90;;;;;;4992543;28;20038;-68
2024/04/02 06:02:08;;;;;;;0.35;0.30;;;9.10;99.90;;;;;;4989961;28;20034;-68
2024/04/02 06:04:34;;;;;;;1.95;0.65;;;9.20;99.90;;;;;;4987525;28;20058;-68
2024/04/02 06:06:59;;;;;;;2.35;0.32;;;9.20;99.90;;;;;;4990073;28;20116;-68
2024/04/02 06:09:25;;;;;;;0.55;0.25;;;9.30;99.90;;;;;;4992622;28;20395;-68
2024/04/02 06:11:51;;;;;;;1.02;0.30;;;9.30;99.90;;;;;;4991168;28;20085;-68
2024/04/02 06:14:16;;;;;;;2.95;0.57;;;9.20;99.90;;;;;;4990780;28;20026;-68
2024/04/02 06:16:42;;;;;;;0.17;0.10;;;9.30;99.90;;;;;;4980863;28;20109;-68
2024/04/02 06:19:08;;;;;;;0.03;0.03;;;9.30;99.90;;;;;;4991441;28;20022;-68
2024/04/02 06:21:34;;;;;;;3.60;0.68;;;9.30;99.90;;;;;;4988099;28;20031;-68
2024/04/02 06:23:59;;;;;;;0.38;0.30;;;9.20;99.90;;;;;;4991826;28;20034;-68
2024/04/02 06:26:25;;;;;;;1.85;0.30;;;9.40;99.90;;;;;;4990782;28;20060;-68
2024/04/02 06:28:51;;;;;;;2.97;0.60;;;9.30;99.90;;;;;;4990667;28;20035;-68
2024/04/02 06:31:16;;;;;;;6.82;1.45;;;9.30;99.90;;;;;;4991239;28;20087;-68
2024/04/02 06:33:42;;;;;;;0.32;0.32;;;9.30;99.90;;;;;;4985868;28;20034;-68
2024/04/02 06:36:08;;;;;;;0.57;0.40;;;9.30;99.90;;;;;;4988247;28;20034;-69
2024/04/02 06:38:34;;;;;;;0.22;0.22;;;9.30;99.90;;;;;;4986839;28;20657;-68
2024/04/02 06:40:59;;;;;;;1.85;0.63;;;9.20;99.90;;;;;;4991128;28;20026;-67
2024/04/02 06:43:25;;;;;;;0.43;0.20;;;9.20;99.90;;;;;;4984402;28;20027;-68
2024/04/02 06:45:54;;;;;;;0.55;0.30;;;9.20;99.90;;;;;;4982330;28;20093;-68
2024/04/02 06:48:22;;;;;;;0.28;0.17;;;9.30;99.90;;;;;;4989122;28;20037;-67
2024/04/02 06:51:06;;;;;;;0.10;0.10;;;9.30;99.90;;;;;;4994450;28;20121;-67
2024/04/02 06:53:32;;;;;;;0.55;0.28;;;9.40;99.90;;;;;;4988866;28;20026;-67
2024/04/02 06:55:58;;;;;;;0.10;0.10;;;9.40;99.90;;;;;;5011621;28;20034;-68
2024/04/02 06:58:25;;;;;;;0.22;0.10;;;9.30;99.90;;;;;;4994002;28;20466;-68
2024/04/02 07:00:51;;;;;;;0.17;0.17;;;9.30;99.90;;;;;;5000549;28;20034;-68
2024/04/02 07:03:22;;;;;;;1.73;0.17;;;9.40;99.90;;;;;;4984296;28;20078;-66
2024/04/02 07:05:50;;;;;;;0.35;0.15;;;9.50;99.90;;;;;;4994680;28;20124;-68
2024/04/02 07:08:16;;;;;;;0.35;0.10;;;9.50;99.90;;;;;;4984020;28;20071;-67
2024/04/02 07:10:45;;;;;;;0.40;0.40;;;9.40;99.90;;;;;;4989312;28;20041;-67
2024/04/02 07:13:12;;;;;;;1.55;0.30;;;9.30;99.90;;;;;;4995669;28;20041;-67
2024/04/02 07:15:40;;;;;;;0.70;0.38;;;9.30;99.90;;;;;;4992318;28;20022;-67
2024/04/02 07:18:06;;;;;;;0.52;0.43;;;9.40;99.90;;;;;;4986377;28;20090;-67
2024/04/02 07:20:32;;;;;;;1.25;0.38;;;9.50;99.90;;;;;;4989799;28;20073;-67
2024/04/02 07:22:59;;;;;;;0.60;0.30;;;9.50;99.90;;;;;;4989399;28;20034;-67
2024/04/02 07:25:26;;;;;;;0.25;0.20;;;9.60;99.90;;;;;;4993642;28;20044;-67
2024/04/02 07:27:52;;;;;;;1.40;0.82;;;9.60;99.90;;;;;;4988115;28;20360;-67
2024/04/02 07:30:18;;;;;;;0.88;0.35;;;9.50;99.90;;;;;;4988287;28;20491;-67
2024/04/02 07:32:45;;;;;;;1.85;1.33;;;9.70;99.90;;;;;;5003662;28;20034;-67
2024/04/02 07:35:11;;;;;;;0.30;0.28;;;9.70;99.90;;;;;;4979880;28;20132;-67
2024/04/02 07:37:37;;;;;;;0.73;0.40;;;9.70;99.90;;;;;;4990955;28;20035;-67
2024/04/02 07:40:03;;;;;;;2.08;0.50;;;9.60;99.90;;;;;;4989960;28;20394;-67
2024/04/02 07:42:28;;;;;;;0.90;0.60;;;9.70;99.90;;;;;;4998892;28;20034;-67
2024/04/02 07:44:54;;;;;;;0.95;0.40;;;9.80;99.90;;;;;;4993738;28;20665;-67
2024/04/02 07:47:20;;;;;;;0.55;0.35;;;9.90;99.90;;;;;;4991993;28;20034;-67
2024/04/02 07:49:45;;;;;;;4.13;0.43;;;9.90;99.90;;;;;;4992456;28;20033;-67
2024/04/02 07:52:11;;;;;;;2.17;0.60;;;10.00;99.90;;;;;;4995903;28;20045;-67
2024/04/02 07:54:37;;;;;;;0.35;0.20;;;10.10;99.90;;;;;;4997520;28;20022;-67
2024/04/02 07:57:03;;;;;;;2.60;0.50;;;10.00;99.90;;;;;;4993515;28;20677;-67
2024/04/02 07:59:29;;;;;;;1.05;0.50;;;9.90;99.90;;;;;;4994360;28;20030;-67
2024/04/02 08:01:54;;;;;;;4.13;0.40;;;9.90;99.90;;;;;;4996503;28;20033;-67
2024/04/02 08:04:20;;;;;;;2.28;0.47;;;10.00;99.90;;;;;;4998288;28;20026;-67
2024/04/02 08:06:46;;;;;;;1.90;0.60;;;10.00;99.90;;;;;;4991615;28;20114;-67
2024/04/02 08:09:13;;;;;;;14.48;0.75;;;10.10;99.90;;;;;;4993834;28;20031;-67
2024/04/02 08:11:39;;;;;;;4.57;0.63;;;10.20;99.90;;;;;;4992287;28;20117;-67
2024/04/02 08:14:05;;;;;;;3.47;1.50;;;10.20;99.90;;;;;;5001366;28;20529;-67
2024/04/02 08:16:34;;;;;;;3.78;0.68;;;10.40;99.90;;;;;;5001069;28;20030;-67
2024/04/02 08:18:59;;;;;;;0.28;0.22;;;10.50;99.90;;;;;;4985928;28;20100;-67
2024/04/02 08:21:25;;;;;;;13.05;1.65;;;10.60;99.90;;;;;;4988589;28;20081;-67
2024/04/02 08:23:51;;;;;;;1.92;0.65;;;10.70;99.90;;;;;;4994189;28;20041;-67
2024/04/02 08:26:19;;;;;;;8.68;1.40;;;10.70;99.90;;;;;;4994181;28;20033;-67
2024/04/02 08:28:45;;;;;;;0.95;0.43;;;10.60;99.90;;;;;;4993592;28;20394;-68
2024/04/02 08:31:11;;;;;;;3.67;0.80;;;10.70;99.90;;;;;;4990157;28;20041;-67
2024/04/02 08:33:37;;;;;;;3.50;0.45;;;10.70;99.90;;;;;;4990560;28;20483;-68
2024/04/02 08:36:03;;;;;;;4.18;0.68;;;10.70;99.90;;;;;;4993780;28;20034;-68
2024/04/02 08:38:29;;;;;;;1.80;1.10;;;10.70;99.90;;;;;;4992315;28;20030;-68
2024/04/02 08:41:03;;;;;;;3.67;0.85;;;10.70;99.90;;;;;;4994256;28;20038;-68
2024/04/02 08:43:31;;;;;;;1.13;0.20;;;10.70;99.90;;;;;;4992429;28;20026;-68
2024/04/02 08:46:00;;;;;;;0.75;0.40;;;10.80;99.90;;;;;;4993554;28;20030;-68
2024/04/02 08:48:26;;;;;;;3.72;0.38;;;10.90;99.90;;;;;;4988632;28;20023;-68
2024/04/02 08:50:55;;;;;;;0.98;0.35;;;11.00;99.90;;;;;;4991297;28;20101;-68
2024/04/02 08:53:25;;;;;;;8.32;0.90;;;11.10;99.90;;;;;;4988155;28;20077;-68
2024/04/02 08:55:51;;;;;;;4.15;2.10;;;11.10;99.90;;;;;;4991200;28;20073;-68
2024/04/02 08:58:17;;;;;;;0.88;0.38;;;11.10;99.90;;;;;;4989193;28;20081;-68
2024/04/02 09:00:44;;;;;;;1.35;0.68;;;11.20;99.90;;;;;;4989911;28;20027;-68
2024/04/02 09:03:14;;;;;;;3.35;1.13;;;11.30;99.90;;;;;;4988030;28;20023;-67
2024/04/02 09:05:40;;;;;;;0.88;0.32;;;11.40;99.90;;;;;;4988496;28;20467;-68
2024/04/02 09:08:08;;;;;;;4.13;0.90;;;11.50;99.90;;;;;;4991869;28;20030;-68
2024/04/02 09:10:34;;;;;;;1.45;0.90;;;11.50;99.90;;;;;;4993818;28;20509;-68
2024/04/02 09:13:00;;;;;;;1.75;0.43;;;11.70;99.90;;;;;;4991247;28;20042;-68
2024/04/02 09:15:26;;;;;;;1.45;0.57;;;11.80;99.90;;;;;;4992821;28;20072;-68
2024/04/02 09:17:52;;;;;;;1.55;0.40;;;12.00;99.90;;;;;;4989733;28;20039;-68
2024/04/02 09:20:18;;;;;;;1.77;0.43;;;12.20;99.90;;;;;;4993362;28;20654;-68
2024/04/02 09:22:43;;;;;;;5.70;0.68;;;12.40;99.90;;;;;;4991206;28;20113;-67
2024/04/02 09:25:11;;;;;;;10.57;2.65;;;12.40;99.90;;;;;;4975770;28;20018;-68
2024/04/02 09:27:38;;;;;;;2.58;1.00;;;12.50;99.90;;;;;;4988072;28;20515;-68
2024/04/02 09:30:06;;;;;;;2.88;0.28;;;12.10;99.90;;;;;;4993552;28;20045;-67
2024/04/02 09:32:36;;;;;;;3.38;0.98;;;12.00;99.90;;;;;;4990343;28;20046;-68
2024/04/02 09:35:27;;;;;;;2.15;0.50;;;11.90;99.90;;;;;;4982616;28;20030;-67
2024/04/02 09:37:52;;;;;;;2.67;0.50;;;11.90;99.90;;;;;;4975774;28;20039;-67
2024/04/02 09:40:20;;;;;;;4.38;0.40;;;11.80;99.90;;;;;;4988616;28;20537;-67
2024/04/02 09:42:49;;;;;;;3.35;0.45;;;11.80;99.90;;;;;;4985239;28;20479;-68
2024/04/02 09:45:17;;;;;;;0.88;0.43;;;12.00;99.90;;;;;;4990916;28;20033;-68
2024/04/02 09:47:45;;;;;;;0.52;0.52;;;12.30;99.90;;;;;;4990728;28;20065;-68
2024/04/02 09:50:11;;;;;;;3.80;0.38;;;12.50;99.90;;;;;;4990116;28;20030;-68
2024/04/02 09:52:37;;;;;;;2.35;0.55;;;12.60;99.90;;;;;;4991782;28;20037;-68
2024/04/02 09:55:04;;;;;;;2.08;0.30;;;12.40;99.90;;;;;;4984797;28;20030;-68
2024/04/02 09:57:31;;;;;;;0.90;0.45;;;12.40;99.90;;;;;;4991135;28;20037;-68
2024/04/02 09:59:57;;;;;;;1.15;0.60;;;12.40;99.90;;;;;;4990021;28;20118;-66
2024/04/02 10:02:27;;;;;;;1.90;0.63;;;12.50;99.90;;;;;;4991319;28;20121;-67
2024/04/02 10:04:55;;;;;;;0.32;0.22;;;12.50;99.90;;;;;;4987820;28;20046;-66
2024/04/02 10:07:32;;;;;;;5.22;0.98;;;12.40;99.90;;;;;;4993064;28;20379;-67
2024/04/02 10:10:00;;;;;;;1.95;0.50;;;12.30;99.90;;;;;;4996339;28;20043;-66
2024/04/02 10:12:33;;;;;;;2.15;0.55;;;12.30;99.90;;;;;;4987819;28;20042;-67
2024/04/02 10:15:09;;;;;;;1.55;0.68;;;12.30;99.90;;;;;;4984905;28;20491;-68
2024/04/02 10:17:35;;;;;;;0.90;0.20;;;12.50;99.90;;;;;;4992015;28;20707;-67
2024/04/02 10:20:02;;;;;;;5.57;0.50;;;12.40;99.90;;;;;;4974838;28;20092;-67
2024/04/02 10:22:32;;;;;;;2.00;0.50;;;12.40;99.90;;;;;;4992105;28;20046;-66
2024/04/02 10:25:10;;;;;;;0.35;0.30;;;12.40;99.90;;;;;;4985526;28;20054;-67
2024/04/02 10:27:36;;;;;;;0.70;0.40;;;12.50;99.90;;;;;;4990693;28;20046;-68
2024/04/02 10:30:20;;;;;;;1.92;0.55;;;12.50;99.90;;;;;;4985496;28;20026;-68
2024/04/02 10:32:47;;;;;;;0.50;0.20;;;12.60;99.90;;;;;;4987664;28;20368;-68
2024/04/02 10:35:20;;;;;;;3.85;0.77;;;12.70;99.90;;;;;;4985407;28;20061;-68
2024/04/02 10:37:52;;;;;;;3.20;0.47;;;12.80;99.90;;;;;;4991604;28;20034;-68
2024/04/02 10:40:18;;;;;;;0.32;0.30;;;12.90;99.90;;;;;;4990362;28;20041;-67
2024/04/02 10:42:49;;;;;;;3.38;0.40;;;13.10;99.90;;;;;;4991765;28;20403;-68
2024/04/02 10:45:17;;;;;;;1.98;0.40;;;13.30;99.90;;;;;;4985181;28;20033;-69
2024/04/02 10:47:50;;;;;;;0.85;0.40;;;13.20;99.90;;;;;;4986643;28;20030;-69
2024/04/02 10:50:22;;;;;;;5.95;0.65;;;13.40;99.90;;;;;;4991125;28;20041;-69
2024/04/02 10:52:47;;;;;;;;;;;13.60;99.90;;;;;;4990932;28;20038;-69
2024/04/02 10:55:13;;;;;;;2.38;0.28;;;13.80;99.90;;;;;;4984737;28;19993;-68
2024/04/02 10:57:40;;;;;;;0.25;0.20;;;13.40;99.90;;;;;;4986954;28;20042;-69
2024/04/02 11:00:16;;;;;;;0.50;0.15;;;13.00;99.90;;;;;;4975946;28;20026;-68
2024/04/02 11:02:43;;;;;;;2.00;0.68;;;13.00;99.90;;;;;;4991249;28;20050;-69
2024/04/02 11:05:16;;;;;;;1.13;0.65;;;13.30;99.90;;;;;;4991319;28;20026;-69
2024/04/02 11:07:47;;;;;;;6.75;0.82;;;13.70;99.90;;;;;;4961171;28;20380;-68
2024/04/02 11:10:13;;;;;;;3.97;0.63;;;13.80;99.90;;;;;;4989637;28;20031;-69
2024/04/02 11:12:40;;;;;;;0.32;0.10;;;14.00;99.90;;;;;;4991587;28;20030;-69
2024/04/02 11:15:10;;;;;;;0.70;0.20;;;14.10;99.80;;;;;;4990102;28;20028;-70
2024/04/02 11:17:37;;;;;;;3.83;0.50;;;14.10;99.90;;;;;;4988326;28;20046;-70
2024/04/02 11:20:09;;;;;;;2.97;0.50;;;14.40;99.90;;;;;;4991143;28;20037;-70
2024/04/02 11:25:24;;;;;;;0.80;0.40;;;14.30;99.80;;;;;;4984582;28;20022;-70
2024/04/02 11:27:50;;;;;;;5.50;1.05;;;13.90;99.80;;;;;;4989145;28;20022;-70
2024/04/02 11:30:20;;;;;;;0.38;0.22;;;13.80;99.90;;;;;;4990102;28;20112;-69
2024/04/02 11:32:47;;;;;;;2.00;0.13;;;13.60;99.90;;;;;;4987693;28;20173;-70
2024/04/02 11:35:14;;;;;;;1.42;0.45;;;13.50;99.90;;;;;;4990211;28;20030;-70
2024/04/02 11:37:42;;;;;;;0.57;0.30;;;13.40;99.90;;;;;;4990225;28;20121;-70
2024/04/02 11:40:11;;;;;;;0.52;0.20;;;13.40;99.90;;;;;;4989948;28;20034;-70
2024/04/02 11:42:37;;;;;;;1.77;0.20;;;13.20;99.90;;;;;;4985723;28;20059;-70
2024/04/02 11:45:04;;;;;;;4.18;0.32;;;13.40;99.90;;;;;;4991398;28;20038;-70
2024/04/02 11:47:30;;;;;;;3.72;0.65;;;13.60;99.90;;;;;;4984407;28;20418;-69
2024/04/02 11:49:56;;;;;;;0.77;0.32;;;13.70;99.90;;;;;;4991385;28;20038;-70
2024/04/02 11:52:22;;;;;;;0.32;0.20;;;14.10;99.90;;;;;;4987061;28;20399;-70
2024/04/02 11:54:48;;;;;;;2.83;0.35;;;14.00;99.90;;;;;;4987583;28;20730;-70
2024/04/02 12:02:44;;;;;;;1.27;0.47;;;13.70;99.90;;;;;;4990121;28;20092;-70
2024/04/02 12:05:11;;;;;;;1.50;0.40;;;13.50;99.90;;;;;;4989741;28;20378;-70
2024/04/02 12:07:38;;;;;;;1.98;0.30;;;13.30;99.90;;;;;;4985497;28;20026;-70
2024/04/02 12:10:06;;;;;;;0.60;0.25;;;13.30;99.90;;;;;;4991942;28;20467;-70
2024/04/02 12:12:33;;;;;;;0.25;0.20;;;12.90;99.90;;;;;;4989893;28;20045;-70
2024/04/02 12:15:00;;;;;;;1.88;0.30;;;12.60;99.90;;;;;;4990753;28;20133;-70
2024/04/02 12:17:26;;;;;;;2.72;1.13;;;12.60;99.90;;;;;;4989546;28;20030;-70
2024/04/02 12:19:56;;;;;;;1.00;0.17;;;12.40;99.90;;;;;;4987598;28;20031;-70
2024/04/02 12:22:23;;;;;;;0.10;0.10;;;12.90;99.90;;;;;;4985438;28;20062;-71
2024/04/02 12:24:49;;;;;;;0.30;0.20;;;13.60;99.90;;;;;;4988490;28;20475;-71
2024/04/02 12:27:15;;;;;;;2.92;0.90;;;14.30;99.90;;;;;;4985797;28;20038;-71
2024/04/02 12:29:40;;;;;;;0.20;0.15;;;14.50;99.90;;;;;;4989635;28;20395;-70
2024/04/02 12:32:10;;;;;;;1.75;0.22;;;14.90;99.90;;;;;;4989865;28;20403;-70
2024/04/02 12:34:37;;;;;;;3.70;0.43;;;15.30;99.90;;;;;;4993547;28;20452;-71
2024/04/02 12:37:03;;;;;;;5.05;0.20;;;14.80;99.90;;;;;;4990181;28;20026;-71
2024/04/02 12:39:30;;;;;;;2.20;0.85;;;15.90;99.90;;;;;;4989972;28;20018;-71
2024/04/02 12:41:56;;;;;;;2.35;0.45;;;16.90;99.90;;;;;;4973555;28;20026;-70
2024/04/02 12:44:22;;;;;;;0.52;0.15;;;16.40;99.00;;;;;;4992572;28;20026;-69
2024/04/02 12:46:47;;;;;;;1.75;0.47;;;16.50;98.50;;;;;;4992564;28;20048;-71
2024/04/02 12:49:14;;;;;;;0.47;0.10;;;16.80;97.60;;;;;;4994207;28;20038;-71
2024/04/02 12:51:40;;;;;;;0.52;0.20;;;17.00;95.90;;;;;;4988895;28;20089;-70
2024/04/02 12:54:06;;;;;;;0.35;0.35;;;15.80;98.50;;;;;;4992770;28;20061;-69
2024/04/02 12:56:32;;;;;;;2.08;0.40;;;15.40;99.90;;;;;;4990597;28;20043;-71
2024/04/02 12:58:58;;;;;;;1.65;0.30;;;15.20;99.90;;;;;;4993052;28;20036;-70
2024/04/02 13:01:24;;;;;;;0.43;0.17;;;14.50;99.90;;;;;;4989912;28;20061;-71